sensor_id;sensor_type;location;lat;lon;timestamp;P1;durP1;ratioP1;P2;durP2;ratioP2
57433;SDS011;43277;52.672;6.984;2022-09-03T00:00:53;4.38;;;1.13;;
57433;SDS011;43277;52.672;6.984;2022-09-03T00:03:22;4.18;;;1.10;;
57433;SDS011;43277;52.672;6.984;2022-09-03T00:05:50;5.68;;;1.10;;
57433;SDS011;43277;52.672;6.984;2022-09-03T00:08:35;3.95;;;1.00;;
57433;SDS011;43277;52.672;6.984;2022-09-03T00:13:54;8.32;;;1.20;;
57433;SDS011;43277;52.672;6.984;2022-09-03T00:16:27;11.55;;;1.20;;
57433;SDS011;43277;52.672;6.984;2022-09-03T00:18:59;4.75;;;1.10;;
57433;SDS011;43277;52.672;6.984;2022-09-03T00:24:34;5.18;;;1.10;;
57433;SDS011;43277;52.672;6.984;2022-09-03T00:27:04;7.20;;;1.15;;
57433;SDS011;43277;52.672;6.984;2022-09-03T00:32:04;3.03;;;0.90;;
57433;SDS011;43277;52.672;6.984;2022-09-03T00:34:39;3.92;;;1.00;;
57433;SDS011;43277;52.672;6.984;2022-09-03T00:39:35;5.00;;;1.00;;
57433;SDS011;43277;52.672;6.984;2022-09-03T00:42:20;3.65;;;0.85;;
57433;SDS011;43277;52.672;6.984;2022-09-03T00:50:44;6.57;;;0.88;;
57433;SDS011;43277;52.672;6.984;2022-09-03T01:01:52;4.50;;;0.90;;
57433;SDS011;43277;52.672;6.984;2022-09-03T01:12:22;4.60;;;0.80;;
57433;SDS011;43277;52.672;6.984;2022-09-03T01:18:01;4.18;;;0.70;;
57433;SDS011;43277;52.672;6.984;2022-09-03T01:20:54;4.05;;;1.00;;
57433;SDS011;43277;52.672;6.984;2022-09-03T01:40:17;4.15;;;0.80;;
57433;SDS011;43277;52.672;6.984;2022-09-03T01:43:22;6.63;;;0.90;;
57433;SDS011;43277;52.672;6.984;2022-09-03T01:46:08;4.28;;;0.90;;
57433;SDS011;43277;52.672;6.984;2022-09-03T01:51:17;4.05;;;0.90;;
57433;SDS011;43277;52.672;6.984;2022-09-03T01:56:24;4.30;;;0.95;;
57433;SDS011;43277;52.672;6.984;2022-09-03T02:07:24;4.63;;;0.90;;
57433;SDS011;43277;52.672;6.984;2022-09-03T02:09:57;5.28;;;1.00;;
57433;SDS011;43277;52.672;6.984;2022-09-03T02:12:28;3.53;;;1.00;;
57433;SDS011;43277;52.672;6.984;2022-09-03T02:14:57;4.32;;;0.95;;
57433;SDS011;43277;52.672;6.984;2022-09-03T02:17:32;2.65;;;0.70;;
57433;SDS011;43277;52.672;6.984;2022-09-03T02:19:59;4.43;;;0.80;;
57433;SDS011;43277;52.672;6.984;2022-09-03T02:22:30;6.78;;;0.90;;
57433;SDS011;43277;52.672;6.984;2022-09-03T02:24:56;6.03;;;1.13;;
57433;SDS011;43277;52.672;6.984;2022-09-03T02:27:22;7.65;;;0.88;;
57433;SDS011;43277;52.672;6.984;2022-09-03T02:29:48;4.72;;;1.00;;
57433;SDS011;43277;52.672;6.984;2022-09-03T02:32:14;2.92;;;0.70;;
57433;SDS011;43277;52.672;6.984;2022-09-03T02:34:43;6.50;;;1.20;;
57433;SDS011;43277;52.672;6.984;2022-09-03T02:37:12;5.78;;;0.95;;
57433;SDS011;43277;52.672;6.984;2022-09-03T02:39:40;6.80;;;1.00;;
57433;SDS011;43277;52.672;6.984;2022-09-03T02:42:05;3.03;;;0.80;;
57433;SDS011;43277;52.672;6.984;2022-09-03T02:44:35;4.28;;;1.27;;
57433;SDS011;43277;52.672;6.984;2022-09-03T02:47:06;4.32;;;1.10;;
57433;SDS011;43277;52.672;6.984;2022-09-03T02:49:32;7.20;;;1.05;;
57433;SDS011;43277;52.672;6.984;2022-09-03T02:51:59;8.57;;;1.00;;
57433;SDS011;43277;52.672;6.984;2022-09-03T02:54:30;4.35;;;1.00;;
57433;SDS011;43277;52.672;6.984;2022-09-03T02:56:57;5.75;;;1.00;;
57433;SDS011;43277;52.672;6.984;2022-09-03T02:59:23;6.68;;;1.00;;
57433;SDS011;43277;52.672;6.984;2022-09-03T03:01:52;3.90;;;0.90;;
57433;SDS011;43277;52.672;6.984;2022-09-03T03:04:20;3.50;;;0.80;;
57433;SDS011;43277;52.672;6.984;2022-09-03T03:06:46;4.28;;;0.90;;
57433;SDS011;43277;52.672;6.984;2022-09-03T03:09:14;3.95;;;0.80;;
57433;SDS011;43277;52.672;6.984;2022-09-03T03:11:40;4.38;;;0.90;;
57433;SDS011;43277;52.672;6.984;2022-09-03T03:14:06;5.93;;;1.00;;
57433;SDS011;43277;52.672;6.984;2022-09-03T03:16:32;4.45;;;0.90;;
57433;SDS011;43277;52.672;6.984;2022-09-03T03:18:57;7.40;;;1.05;;
57433;SDS011;43277;52.672;6.984;2022-09-03T03:21:24;3.35;;;0.90;;
57433;SDS011;43277;52.672;6.984;2022-09-03T03:23:50;4.55;;;1.00;;
57433;SDS011;43277;52.672;6.984;2022-09-03T03:26:16;4.88;;;0.90;;
57433;SDS011;43277;52.672;6.984;2022-09-03T03:28:43;2.95;;;0.93;;
57433;SDS011;43277;52.672;6.984;2022-09-03T03:31:15;5.95;;;1.17;;
57433;SDS011;43277;52.672;6.984;2022-09-03T03:33:42;5.20;;;1.10;;
57433;SDS011;43277;52.672;6.984;2022-09-03T03:36:09;4.05;;;1.00;;
57433;SDS011;43277;52.672;6.984;2022-09-03T03:38:36;4.18;;;1.08;;
57433;SDS011;43277;52.672;6.984;2022-09-03T03:41:06;4.35;;;1.00;;
57433;SDS011;43277;52.672;6.984;2022-09-03T03:43:36;5.15;;;1.05;;
57433;SDS011;43277;52.672;6.984;2022-09-03T03:46:02;8.88;;;1.20;;
57433;SDS011;43277;52.672;6.984;2022-09-03T03:48:29;4.78;;;1.10;;
57433;SDS011;43277;52.672;6.984;2022-09-03T03:50:59;4.38;;;1.00;;
57433;SDS011;43277;52.672;6.984;2022-09-03T03:53:30;3.33;;;0.90;;
57433;SDS011;43277;52.672;6.984;2022-09-03T03:55:57;3.92;;;0.95;;
57433;SDS011;43277;52.672;6.984;2022-09-03T03:58:24;3.70;;;1.02;;
57433;SDS011;43277;52.672;6.984;2022-09-03T04:00:50;4.10;;;0.85;;
57433;SDS011;43277;52.672;6.984;2022-09-03T04:03:17;4.55;;;0.93;;
57433;SDS011;43277;52.672;6.984;2022-09-03T04:05:52;5.68;;;0.90;;
57433;SDS011;43277;52.672;6.984;2022-09-03T04:08:19;3.75;;;1.00;;
57433;SDS011;43277;52.672;6.984;2022-09-03T04:10:45;3.40;;;1.02;;
57433;SDS011;43277;52.672;6.984;2022-09-03T04:13:11;7.47;;;1.40;;
57433;SDS011;43277;52.672;6.984;2022-09-03T04:15:37;4.70;;;1.15;;
57433;SDS011;43277;52.672;6.984;2022-09-03T04:18:03;3.97;;;1.17;;
57433;SDS011;43277;52.672;6.984;2022-09-03T04:20:28;6.57;;;1.08;;
57433;SDS011;43277;52.672;6.984;2022-09-03T04:22:54;4.43;;;1.20;;
57433;SDS011;43277;52.672;6.984;2022-09-03T04:25:25;3.33;;;0.90;;
57433;SDS011;43277;52.672;6.984;2022-09-03T04:27:50;7.63;;;1.15;;
57433;SDS011;43277;52.672;6.984;2022-09-03T04:30:16;4.25;;;1.20;;
57433;SDS011;43277;52.672;6.984;2022-09-03T04:32:42;9.60;;;1.30;;
57433;SDS011;43277;52.672;6.984;2022-09-03T04:35:17;5.10;;;1.00;;
57433;SDS011;43277;52.672;6.984;2022-09-03T04:37:46;5.88;;;1.17;;
57433;SDS011;43277;52.672;6.984;2022-09-03T04:40:12;3.58;;;0.90;;
57433;SDS011;43277;52.672;6.984;2022-09-03T04:42:38;4.53;;;1.13;;
57433;SDS011;43277;52.672;6.984;2022-09-03T04:45:04;4.00;;;1.08;;
57433;SDS011;43277;52.672;6.984;2022-09-03T04:47:30;5.53;;;1.23;;
57433;SDS011;43277;52.672;6.984;2022-09-03T04:49:56;5.47;;;1.27;;
57433;SDS011;43277;52.672;6.984;2022-09-03T04:52:21;5.63;;;1.17;;
57433;SDS011;43277;52.672;6.984;2022-09-03T04:54:48;6.72;;;1.27;;
57433;SDS011;43277;52.672;6.984;2022-09-03T04:57:14;6.22;;;1.10;;
57433;SDS011;43277;52.672;6.984;2022-09-03T04:59:39;5.25;;;1.30;;
57433;SDS011;43277;52.672;6.984;2022-09-03T05:02:06;10.82;;;1.73;;
57433;SDS011;43277;52.672;6.984;2022-09-03T05:04:33;4.45;;;1.10;;
57433;SDS011;43277;52.672;6.984;2022-09-03T05:06:59;4.78;;;1.38;;
57433;SDS011;43277;52.672;6.984;2022-09-03T05:09:24;6.15;;;1.60;;
57433;SDS011;43277;52.672;6.984;2022-09-03T05:11:50;6.22;;;1.30;;
57433;SDS011;43277;52.672;6.984;2022-09-03T05:14:15;5.03;;;1.30;;
57433;SDS011;43277;52.672;6.984;2022-09-03T05:16:41;4.82;;;1.13;;
57433;SDS011;43277;52.672;6.984;2022-09-03T05:19:06;7.88;;;1.38;;
57433;SDS011;43277;52.672;6.984;2022-09-03T05:21:33;3.80;;;1.23;;
57433;SDS011;43277;52.672;6.984;2022-09-03T05:24:02;9.15;;;1.40;;
57433;SDS011;43277;52.672;6.984;2022-09-03T05:26:29;7.78;;;1.38;;
57433;SDS011;43277;52.672;6.984;2022-09-03T05:29:00;3.45;;;1.30;;
57433;SDS011;43277;52.672;6.984;2022-09-03T05:31:31;8.68;;;1.48;;
57433;SDS011;43277;52.672;6.984;2022-09-03T05:33:59;5.03;;;1.27;;
57433;SDS011;43277;52.672;6.984;2022-09-03T05:36:27;4.78;;;1.27;;
57433;SDS011;43277;52.672;6.984;2022-09-03T05:38:56;4.78;;;1.40;;
57433;SDS011;43277;52.672;6.984;2022-09-03T05:41:22;4.20;;;1.40;;
57433;SDS011;43277;52.672;6.984;2022-09-03T05:43:49;5.10;;;1.40;;
57433;SDS011;43277;52.672;6.984;2022-09-03T05:46:20;3.88;;;1.35;;
57433;SDS011;43277;52.672;6.984;2022-09-03T05:48:55;5.63;;;1.45;;
57433;SDS011;43277;52.672;6.984;2022-09-03T05:51:22;6.22;;;1.60;;
57433;SDS011;43277;52.672;6.984;2022-09-03T05:53:48;5.50;;;1.73;;
57433;SDS011;43277;52.672;6.984;2022-09-03T05:56:14;4.75;;;1.50;;
57433;SDS011;43277;52.672;6.984;2022-09-03T05:58:42;5.22;;;1.48;;
57433;SDS011;43277;52.672;6.984;2022-09-03T06:01:21;5.80;;;1.67;;
57433;SDS011;43277;52.672;6.984;2022-09-03T06:03:53;4.15;;;1.33;;
57433;SDS011;43277;52.672;6.984;2022-09-03T06:06:20;4.65;;;1.48;;
57433;SDS011;43277;52.672;6.984;2022-09-03T06:08:50;5.47;;;1.60;;
57433;SDS011;43277;52.672;6.984;2022-09-03T06:11:16;5.45;;;1.45;;
57433;SDS011;43277;52.672;6.984;2022-09-03T06:13:42;4.90;;;1.42;;
57433;SDS011;43277;52.672;6.984;2022-09-03T06:16:08;4.90;;;1.70;;
57433;SDS011;43277;52.672;6.984;2022-09-03T06:18:33;5.10;;;1.50;;
57433;SDS011;43277;52.672;6.984;2022-09-03T06:21:00;3.50;;;1.33;;
57433;SDS011;43277;52.672;6.984;2022-09-03T06:23:28;8.20;;;1.80;;
57433;SDS011;43277;52.672;6.984;2022-09-03T06:28:35;7.63;;;1.70;;
57433;SDS011;43277;52.672;6.984;2022-09-03T06:31:02;5.93;;;1.40;;
57433;SDS011;43277;52.672;6.984;2022-09-03T06:33:31;6.07;;;1.50;;
57433;SDS011;43277;52.672;6.984;2022-09-03T06:35:58;6.00;;;1.48;;
57433;SDS011;43277;52.672;6.984;2022-09-03T06:38:26;7.38;;;2.13;;
57433;SDS011;43277;52.672;6.984;2022-09-03T06:40:57;9.32;;;1.77;;
57433;SDS011;43277;52.672;6.984;2022-09-03T06:43:32;5.43;;;1.83;;
57433;SDS011;43277;52.672;6.984;2022-09-03T06:46:00;8.38;;;1.90;;
57433;SDS011;43277;52.672;6.984;2022-09-03T06:48:29;8.55;;;1.60;;
57433;SDS011;43277;52.672;6.984;2022-09-03T06:50:56;6.40;;;1.60;;
57433;SDS011;43277;52.672;6.984;2022-09-03T06:53:28;4.35;;;1.33;;
57433;SDS011;43277;52.672;6.984;2022-09-03T06:55:56;10.18;;;1.60;;
57433;SDS011;43277;52.672;6.984;2022-09-03T06:58:23;9.05;;;1.88;;
57433;SDS011;43277;52.672;6.984;2022-09-03T07:00:52;6.93;;;1.50;;
57433;SDS011;43277;52.672;6.984;2022-09-03T07:03:18;5.03;;;1.55;;
57433;SDS011;43277;52.672;6.984;2022-09-03T07:05:45;6.35;;;1.48;;
57433;SDS011;43277;52.672;6.984;2022-09-03T07:08:11;6.38;;;1.42;;
57433;SDS011;43277;52.672;6.984;2022-09-03T07:10:36;4.00;;;1.48;;
57433;SDS011;43277;52.672;6.984;2022-09-03T07:13:02;7.20;;;1.40;;
57433;SDS011;43277;52.672;6.984;2022-09-03T07:15:30;6.10;;;1.20;;
57433;SDS011;43277;52.672;6.984;2022-09-03T07:17:57;10.88;;;1.92;;
57433;SDS011;43277;52.672;6.984;2022-09-03T07:20:23;8.88;;;1.42;;
57433;SDS011;43277;52.672;6.984;2022-09-03T07:22:48;5.88;;;1.27;;
57433;SDS011;43277;52.672;6.984;2022-09-03T07:25:14;6.82;;;1.40;;
57433;SDS011;43277;52.672;6.984;2022-09-03T07:27:40;5.85;;;1.58;;
57433;SDS011;43277;52.672;6.984;2022-09-03T07:30:05;5.05;;;1.50;;
57433;SDS011;43277;52.672;6.984;2022-09-03T07:32:34;4.57;;;1.10;;
57433;SDS011;43277;52.672;6.984;2022-09-03T07:35:01;4.30;;;1.27;;
57433;SDS011;43277;52.672;6.984;2022-09-03T07:37:27;4.97;;;1.30;;
57433;SDS011;43277;52.672;6.984;2022-09-03T07:39:52;3.85;;;1.15;;
57433;SDS011;43277;52.672;6.984;2022-09-03T07:42:18;6.40;;;1.38;;
57433;SDS011;43277;52.672;6.984;2022-09-03T07:44:45;7.65;;;1.50;;
57433;SDS011;43277;52.672;6.984;2022-09-03T07:47:10;4.50;;;1.30;;
57433;SDS011;43277;52.672;6.984;2022-09-03T07:49:37;6.90;;;1.45;;
57433;SDS011;43277;52.672;6.984;2022-09-03T07:52:03;8.43;;;1.67;;
57433;SDS011;43277;52.672;6.984;2022-09-03T07:54:28;5.82;;;1.27;;
57433;SDS011;43277;52.672;6.984;2022-09-03T07:56:55;12.07;;;1.85;;
57433;SDS011;43277;52.672;6.984;2022-09-03T07:59:21;7.30;;;1.30;;
57433;SDS011;43277;52.672;6.984;2022-09-03T08:01:47;7.03;;;1.52;;
57433;SDS011;43277;52.672;6.984;2022-09-03T08:04:14;7.13;;;1.52;;
57433;SDS011;43277;52.672;6.984;2022-09-03T08:06:40;5.82;;;1.58;;
57433;SDS011;43277;52.672;6.984;2022-09-03T08:09:08;7.03;;;1.40;;
57433;SDS011;43277;52.672;6.984;2022-09-03T08:11:36;5.95;;;1.40;;
57433;SDS011;43277;52.672;6.984;2022-09-03T08:14:04;6.78;;;1.45;;
57433;SDS011;43277;52.672;6.984;2022-09-03T08:16:35;8.15;;;1.05;;
57433;SDS011;43277;52.672;6.984;2022-09-03T08:19:03;4.60;;;1.20;;
57433;SDS011;43277;52.672;6.984;2022-09-03T08:21:29;8.00;;;1.50;;
57433;SDS011;43277;52.672;6.984;2022-09-03T08:23:56;6.30;;;1.40;;
57433;SDS011;43277;52.672;6.984;2022-09-03T08:26:35;3.75;;;1.30;;
57433;SDS011;43277;52.672;6.984;2022-09-03T08:29:02;6.47;;;1.08;;
57433;SDS011;43277;52.672;6.984;2022-09-03T08:31:29;6.93;;;1.50;;
57433;SDS011;43277;52.672;6.984;2022-09-03T08:33:56;6.00;;;0.93;;
57433;SDS011;43277;52.672;6.984;2022-09-03T08:36:24;8.23;;;1.52;;
57433;SDS011;43277;52.672;6.984;2022-09-03T08:38:52;4.82;;;1.13;;
57433;SDS011;43277;52.672;6.984;2022-09-03T08:43:59;7.32;;;1.30;;
57433;SDS011;43277;52.672;6.984;2022-09-03T08:49:13;14.50;;;1.75;;
57433;SDS011;43277;52.672;6.984;2022-09-03T08:51:44;5.35;;;1.40;;
57433;SDS011;43277;52.672;6.984;2022-09-03T08:54:13;6.40;;;1.38;;
57433;SDS011;43277;52.672;6.984;2022-09-03T08:56:40;7.38;;;1.20;;
57433;SDS011;43277;52.672;6.984;2022-09-03T08:59:08;12.60;;;1.67;;
57433;SDS011;43277;52.672;6.984;2022-09-03T09:07:31;9.52;;;1.60;;
57433;SDS011;43277;52.672;6.984;2022-09-03T09:10:15;7.60;;;1.30;;
57433;SDS011;43277;52.672;6.984;2022-09-03T09:13:08;6.20;;;0.80;;
57433;SDS011;43277;52.672;6.984;2022-09-03T09:21:35;6.72;;;1.30;;
57433;SDS011;43277;52.672;6.984;2022-09-03T09:24:55;5.80;;;1.30;;
57433;SDS011;43277;52.672;6.984;2022-09-03T09:27:01;8.98;;;1.80;;
57433;SDS011;43277;52.672;6.984;2022-09-03T09:29:34;6.20;;;1.42;;
57433;SDS011;43277;52.672;6.984;2022-09-03T09:32:01;6.07;;;1.20;;
57433;SDS011;43277;52.672;6.984;2022-09-03T09:34:34;8.80;;;1.52;;
57433;SDS011;43277;52.672;6.984;2022-09-03T09:37:02;4.60;;;1.20;;
57433;SDS011;43277;52.672;6.984;2022-09-03T09:39:31;5.78;;;1.10;;
57433;SDS011;43277;52.672;6.984;2022-09-03T09:41:58;6.68;;;1.10;;
57433;SDS011;43277;52.672;6.984;2022-09-03T09:44:39;5.68;;;1.25;;
57433;SDS011;43277;52.672;6.984;2022-09-03T09:52:11;7.93;;;1.15;;
57433;SDS011;43277;52.672;6.984;2022-09-03T09:54:39;4.75;;;1.27;;
57433;SDS011;43277;52.672;6.984;2022-09-03T09:57:07;5.78;;;1.23;;
57433;SDS011;43277;52.672;6.984;2022-09-03T09:59:41;8.63;;;1.13;;
57433;SDS011;43277;52.672;6.984;2022-09-03T10:02:12;7.75;;;1.17;;
57433;SDS011;43277;52.672;6.984;2022-09-03T10:04:51;4.95;;;1.15;;
57433;SDS011;43277;52.672;6.984;2022-09-03T10:07:21;7.18;;;1.90;;
57433;SDS011;43277;52.672;6.984;2022-09-03T10:12:42;4.90;;;1.10;;
57433;SDS011;43277;52.672;6.984;2022-09-03T10:18:14;9.02;;;1.20;;
57433;SDS011;43277;52.672;6.984;2022-09-03T10:21:05;4.88;;;1.23;;
57433;SDS011;43277;52.672;6.984;2022-09-03T10:26:22;5.95;;;1.23;;
57433;SDS011;43277;52.672;6.984;2022-09-03T10:28:56;5.93;;;0.93;;
57433;SDS011;43277;52.672;6.984;2022-09-03T10:34:28;5.97;;;1.10;;
57433;SDS011;43277;52.672;6.984;2022-09-03T10:44:49;6.80;;;1.33;;
57433;SDS011;43277;52.672;6.984;2022-09-03T10:50:14;5.55;;;1.15;;
57433;SDS011;43277;52.672;6.984;2022-09-03T10:56:31;12.27;;;1.13;;
57433;SDS011;43277;52.672;6.984;2022-09-03T11:01:29;7.03;;;1.48;;
57433;SDS011;43277;52.672;6.984;2022-09-03T11:04:28;5.80;;;1.02;;
57433;SDS011;43277;52.672;6.984;2022-09-03T11:07:00;3.60;;;0.95;;
57433;SDS011;43277;52.672;6.984;2022-09-03T11:09:35;4.50;;;1.20;;
57433;SDS011;43277;52.672;6.984;2022-09-03T11:12:08;5.07;;;1.10;;
57433;SDS011;43277;52.672;6.984;2022-09-03T11:14:52;4.97;;;1.40;;
57433;SDS011;43277;52.672;6.984;2022-09-03T11:17:29;7.00;;;1.08;;
57433;SDS011;43277;52.672;6.984;2022-09-03T11:20:16;4.13;;;1.20;;
57433;SDS011;43277;52.672;6.984;2022-09-03T11:22:45;4.90;;;1.10;;
57433;SDS011;43277;52.672;6.984;2022-09-03T11:25:13;4.68;;;0.95;;
57433;SDS011;43277;52.672;6.984;2022-09-03T11:30:05;4.93;;;1.30;;
57433;SDS011;43277;52.672;6.984;2022-09-03T11:32:40;4.68;;;1.13;;
57433;SDS011;43277;52.672;6.984;2022-09-03T11:35:27;5.38;;;1.00;;
57433;SDS011;43277;52.672;6.984;2022-09-03T11:37:57;7.13;;;1.50;;
57433;SDS011;43277;52.672;6.984;2022-09-03T11:40:33;4.53;;;1.13;;
57433;SDS011;43277;52.672;6.984;2022-09-03T11:43:07;5.95;;;1.17;;
57433;SDS011;43277;52.672;6.984;2022-09-03T11:45:37;3.53;;;1.00;;
57433;SDS011;43277;52.672;6.984;2022-09-03T11:48:16;5.60;;;1.40;;
57433;SDS011;43277;52.672;6.984;2022-09-03T11:50:56;4.07;;;1.02;;
57433;SDS011;43277;52.672;6.984;2022-09-03T11:53:25;6.90;;;1.27;;
57433;SDS011;43277;52.672;6.984;2022-09-03T11:58:29;5.43;;;1.38;;
57433;SDS011;43277;52.672;6.984;2022-09-03T12:01:05;8.77;;;1.30;;
57433;SDS011;43277;52.672;6.984;2022-09-03T12:03:51;4.95;;;1.00;;
57433;SDS011;43277;52.672;6.984;2022-09-03T12:06:41;4.03;;;0.82;;
57433;SDS011;43277;52.672;6.984;2022-09-03T12:17:56;5.18;;;1.10;;
57433;SDS011;43277;52.672;6.984;2022-09-03T12:20:47;9.20;;;1.10;;
57433;SDS011;43277;52.672;6.984;2022-09-03T12:23:25;5.00;;;1.30;;
57433;SDS011;43277;52.672;6.984;2022-09-03T12:26:10;5.40;;;1.10;;
57433;SDS011;43277;52.672;6.984;2022-09-03T12:31:21;7.38;;;1.00;;
57433;SDS011;43277;52.672;6.984;2022-09-03T12:33:58;5.63;;;1.10;;
57433;SDS011;43277;52.672;6.984;2022-09-03T12:36:38;6.40;;;1.00;;
57433;SDS011;43277;52.672;6.984;2022-09-03T12:39:09;9.50;;;1.20;;
57433;SDS011;43277;52.672;6.984;2022-09-03T12:41:37;3.75;;;1.20;;
57433;SDS011;43277;52.672;6.984;2022-09-03T12:44:03;6.35;;;1.45;;
57433;SDS011;43277;52.672;6.984;2022-09-03T12:46:30;3.88;;;1.00;;
57433;SDS011;43277;52.672;6.984;2022-09-03T12:49:01;6.38;;;1.08;;
57433;SDS011;43277;52.672;6.984;2022-09-03T12:51:30;6.68;;;1.10;;
57433;SDS011;43277;52.672;6.984;2022-09-03T12:54:03;3.92;;;1.10;;
57433;SDS011;43277;52.672;6.984;2022-09-03T12:56:31;3.75;;;0.98;;
57433;SDS011;43277;52.672;6.984;2022-09-03T12:59:00;6.40;;;1.10;;
57433;SDS011;43277;52.672;6.984;2022-09-03T13:01:32;4.18;;;0.88;;
57433;SDS011;43277;52.672;6.984;2022-09-03T13:04:07;8.30;;;1.00;;
57433;SDS011;43277;52.672;6.984;2022-09-03T13:06:43;7.85;;;1.35;;
57433;SDS011;43277;52.672;6.984;2022-09-03T13:09:21;4.03;;;1.10;;
57433;SDS011;43277;52.672;6.984;2022-09-03T13:11:50;6.45;;;1.20;;
57433;SDS011;43277;52.672;6.984;2022-09-03T13:14:16;5.70;;;1.10;;
57433;SDS011;43277;52.672;6.984;2022-09-03T13:25:22;7.18;;;1.08;;
57433;SDS011;43277;52.672;6.984;2022-09-03T13:28:09;4.38;;;1.20;;
57433;SDS011;43277;52.672;6.984;2022-09-03T13:36:12;4.43;;;1.05;;
57433;SDS011;43277;52.672;6.984;2022-09-03T13:38:49;5.72;;;1.10;;
57433;SDS011;43277;52.672;6.984;2022-09-03T13:52:37;3.55;;;1.05;;
57433;SDS011;43277;52.672;6.984;2022-09-03T14:01:25;4.70;;;1.00;;
57433;SDS011;43277;52.672;6.984;2022-09-03T14:04:03;5.13;;;1.08;;
57433;SDS011;43277;52.672;6.984;2022-09-03T14:06:43;4.88;;;1.10;;
57433;SDS011;43277;52.672;6.984;2022-09-03T14:09:22;3.53;;;1.20;;
57433;SDS011;43277;52.672;6.984;2022-09-03T14:12:04;6.55;;;1.50;;
57433;SDS011;43277;52.672;6.984;2022-09-03T14:20:40;7.05;;;1.38;;
57433;SDS011;43277;52.672;6.984;2022-09-03T14:26:14;8.10;;;1.27;;
57433;SDS011;43277;52.672;6.984;2022-09-03T14:28:48;5.95;;;0.90;;
57433;SDS011;43277;52.672;6.984;2022-09-03T14:40:29;5.10;;;1.00;;
57433;SDS011;43277;52.672;6.984;2022-09-03T14:46:06;7.07;;;1.10;;
57433;SDS011;43277;52.672;6.984;2022-09-03T14:49:02;4.47;;;1.10;;
57433;SDS011;43277;52.672;6.984;2022-09-03T14:51:58;5.18;;;1.00;;
57433;SDS011;43277;52.672;6.984;2022-09-03T15:07:52;4.57;;;1.00;;
57433;SDS011;43277;52.672;6.984;2022-09-03T15:10:26;4.80;;;1.23;;
57433;SDS011;43277;52.672;6.984;2022-09-03T15:13:09;4.63;;;1.30;;
57433;SDS011;43277;52.672;6.984;2022-09-03T15:26:42;4.88;;;1.30;;
57433;SDS011;43277;52.672;6.984;2022-09-03T15:29:28;5.38;;;1.00;;
57433;SDS011;43277;52.672;6.984;2022-09-03T15:35:08;4.63;;;1.20;;
57433;SDS011;43277;52.672;6.984;2022-09-03T15:37:47;4.60;;;1.10;;
57433;SDS011;43277;52.672;6.984;2022-09-03T15:41:01;5.65;;;1.60;;
57433;SDS011;43277;52.672;6.984;2022-09-03T15:43:17;3.72;;;1.20;;
57433;SDS011;43277;52.672;6.984;2022-09-03T15:45:56;5.22;;;1.15;;
57433;SDS011;43277;52.672;6.984;2022-09-03T15:48:35;3.88;;;1.15;;
57433;SDS011;43277;52.672;6.984;2022-09-03T15:59:45;3.85;;;0.82;;
57433;SDS011;43277;52.672;6.984;2022-09-03T16:02:41;4.53;;;1.10;;
57433;SDS011;43277;52.672;6.984;2022-09-03T16:05:19;8.48;;;1.50;;
57433;SDS011;43277;52.672;6.984;2022-09-03T16:10:49;5.40;;;1.35;;
57433;SDS011;43277;52.672;6.984;2022-09-03T16:16:06;5.15;;;1.20;;
57433;SDS011;43277;52.672;6.984;2022-09-03T16:24:15;4.05;;;1.27;;
57433;SDS011;43277;52.672;6.984;2022-09-03T16:29:11;4.45;;;1.20;;
57433;SDS011;43277;52.672;6.984;2022-09-03T16:31:58;3.70;;;1.10;;
57433;SDS011;43277;52.672;6.984;2022-09-03T16:40:12;6.80;;;1.20;;
57433;SDS011;43277;52.672;6.984;2022-09-03T16:42:48;7.90;;;1.30;;
57433;SDS011;43277;52.672;6.984;2022-09-03T16:48:05;8.50;;;1.50;;
57433;SDS011;43277;52.672;6.984;2022-09-03T16:53:34;4.78;;;1.38;;
57433;SDS011;43277;52.672;6.984;2022-09-03T16:56:12;5.85;;;1.17;;
57433;SDS011;43277;52.672;6.984;2022-09-03T16:58:54;5.05;;;1.30;;
57433;SDS011;43277;52.672;6.984;2022-09-03T17:04:33;3.65;;;1.10;;
57433;SDS011;43277;52.672;6.984;2022-09-03T17:09:59;5.45;;;1.13;;
57433;SDS011;43277;52.672;6.984;2022-09-03T17:15:27;5.50;;;1.27;;
57433;SDS011;43277;52.672;6.984;2022-09-03T17:18:18;5.90;;;1.10;;
57433;SDS011;43277;52.672;6.984;2022-09-03T17:29:31;4.47;;;1.13;;
57433;SDS011;43277;52.672;6.984;2022-09-03T17:32:30;5.13;;;1.20;;
57433;SDS011;43277;52.672;6.984;2022-09-03T17:47:37;4.90;;;1.33;;
57433;SDS011;43277;52.672;6.984;2022-09-03T17:52:27;5.95;;;1.20;;
57433;SDS011;43277;52.672;6.984;2022-09-03T17:54:58;8.07;;;1.20;;
57433;SDS011;43277;52.672;6.984;2022-09-03T17:57:45;5.03;;;1.30;;
57433;SDS011;43277;52.672;6.984;2022-09-03T18:11:39;6.60;;;1.20;;
57433;SDS011;43277;52.672;6.984;2022-09-03T18:14:21;4.47;;;1.17;;
57433;SDS011;43277;52.672;6.984;2022-09-03T18:19:38;6.97;;;1.38;;
57433;SDS011;43277;52.672;6.984;2022-09-03T18:22:40;6.65;;;1.25;;
57433;SDS011;43277;52.672;6.984;2022-09-03T18:25:34;7.25;;;1.50;;
57433;SDS011;43277;52.672;6.984;2022-09-03T18:28:23;6.25;;;1.20;;
57433;SDS011;43277;52.672;6.984;2022-09-03T18:31:36;5.57;;;1.27;;
57433;SDS011;43277;52.672;6.984;2022-09-03T18:34:23;5.30;;;1.50;;
57433;SDS011;43277;52.672;6.984;2022-09-03T18:37:14;6.57;;;1.35;;
57433;SDS011;43277;52.672;6.984;2022-09-03T18:40:01;6.18;;;1.30;;
57433;SDS011;43277;52.672;6.984;2022-09-03T18:46:18;6.40;;;1.20;;
57433;SDS011;43277;52.672;6.984;2022-09-03T18:49:47;5.13;;;1.35;;
57433;SDS011;43277;52.672;6.984;2022-09-03T18:52:34;4.45;;;1.35;;
57433;SDS011;43277;52.672;6.984;2022-09-03T19:01:43;4.35;;;1.23;;
57433;SDS011;43277;52.672;6.984;2022-09-03T19:07:40;4.85;;;1.50;;
57433;SDS011;43277;52.672;6.984;2022-09-03T19:10:47;5.68;;;1.60;;
57433;SDS011;43277;52.672;6.984;2022-09-03T19:22:38;6.82;;;1.70;;
57433;SDS011;43277;52.672;6.984;2022-09-03T19:25:24;6.88;;;1.50;;
57433;SDS011;43277;52.672;6.984;2022-09-03T19:28:15;8.73;;;1.77;;
57433;SDS011;43277;52.672;6.984;2022-09-03T19:38:05;5.95;;;1.67;;
57433;SDS011;43277;52.672;6.984;2022-09-03T19:47:03;6.45;;;1.90;;
57433;SDS011;43277;52.672;6.984;2022-09-03T19:53:05;7.20;;;1.70;;
57433;SDS011;43277;52.672;6.984;2022-09-03T19:55:54;5.50;;;1.60;;
57433;SDS011;43277;52.672;6.984;2022-09-03T19:59:23;5.47;;;1.27;;
57433;SDS011;43277;52.672;6.984;2022-09-03T20:01:52;8.02;;;1.40;;
57433;SDS011;43277;52.672;6.984;2022-09-03T20:05:10;5.93;;;1.20;;
57433;SDS011;43277;52.672;6.984;2022-09-03T20:07:49;7.18;;;1.25;;
57433;SDS011;43277;52.672;6.984;2022-09-03T20:10:37;9.23;;;1.30;;
57433;SDS011;43277;52.672;6.984;2022-09-03T20:13:13;6.07;;;1.25;;
57433;SDS011;43277;52.672;6.984;2022-09-03T20:15:49;5.57;;;1.30;;
57433;SDS011;43277;52.672;6.984;2022-09-03T20:21:23;7.30;;;1.50;;
57433;SDS011;43277;52.672;6.984;2022-09-03T20:29:27;7.53;;;1.52;;
57433;SDS011;43277;52.672;6.984;2022-09-03T20:35:16;10.98;;;2.40;;
57433;SDS011;43277;52.672;6.984;2022-09-03T20:37:44;6.43;;;2.55;;
57433;SDS011;43277;52.672;6.984;2022-09-03T20:46:15;7.50;;;1.90;;
57433;SDS011;43277;52.672;6.984;2022-09-03T20:49:07;8.10;;;1.40;;
57433;SDS011;43277;52.672;6.984;2022-09-03T20:51:49;4.82;;;1.30;;
57433;SDS011;43277;52.672;6.984;2022-09-03T20:54:24;6.15;;;1.40;;
57433;SDS011;43277;52.672;6.984;2022-09-03T21:02:18;7.63;;;2.40;;
57433;SDS011;43277;52.672;6.984;2022-09-03T21:10:38;9.15;;;1.98;;
57433;SDS011;43277;52.672;6.984;2022-09-03T21:16:11;5.85;;;1.70;;
57433;SDS011;43277;52.672;6.984;2022-09-03T21:19:18;6.57;;;1.55;;
57433;SDS011;43277;52.672;6.984;2022-09-03T21:21:57;6.07;;;1.30;;
57433;SDS011;43277;52.672;6.984;2022-09-03T21:24:29;6.57;;;1.40;;
57433;SDS011;43277;52.672;6.984;2022-09-03T21:27:22;6.18;;;1.90;;
57433;SDS011;43277;52.672;6.984;2022-09-03T21:35:26;7.90;;;1.50;;
57433;SDS011;43277;52.672;6.984;2022-09-03T21:37:58;6.78;;;1.40;;